createdAt,value
2023-05-13T05:01:02.290Z,1.60
2023-05-13T05:12:06.960Z,9.30
2023-05-13T05:23:06.868Z,8.00
2023-05-13T05:34:06.775Z,8.30
2023-05-13T05:45:06.596Z,6.70
2023-05-13T05:56:06.487Z,5.50
2023-05-13T06:07:06.382Z,4.70
2023-05-13T06:18:06.404Z,4.20
2023-05-13T06:29:06.114Z,3.10
2023-05-13T06:40:05.985Z,3.80
2023-05-13T06:51:05.855Z,3.00
2023-05-13T07:02:05.730Z,3.10
2023-05-13T07:13:05.616Z,3.60
2023-05-13T07:24:05.536Z,3.20
2023-05-13T07:35:05.363Z,3.90
2023-05-13T07:46:05.291Z,3.40
2023-05-13T07:57:05.135Z,3.70
2023-05-13T08:08:04.991Z,3.60
2023-05-13T08:19:04.976Z,3.00
2023-05-13T08:30:04.748Z,3.00
2023-05-13T08:41:04.623Z,2.90
2023-05-13T08:52:04.549Z,2.20
2023-05-13T09:03:04.448Z,2.80
2023-05-13T09:14:04.265Z,2.90
2023-05-13T09:25:04.145Z,2.30
2023-05-13T09:36:04.026Z,2.90
2023-05-13T09:47:03.962Z,3.10
2023-05-13T09:58:03.805Z,2.90
2023-05-13T10:09:03.660Z,3.40
2023-05-13T10:20:03.531Z,2.80
2023-05-13T10:31:03.418Z,3.00
2023-05-13T10:42:03.287Z,2.80
2023-05-13T10:53:03.151Z,2.90
2023-05-13T11:04:03.213Z,3.00
2023-05-13T11:15:02.915Z,2.80
2023-05-13T11:26:02.792Z,3.10
2023-05-13T11:37:02.671Z,2.80
2023-05-13T11:48:02.597Z,3.20
2023-05-13T11:59:02.466Z,2.70
2023-05-13T12:10:02.326Z,3.30
2023-05-13T12:21:02.200Z,3.30
2023-05-13T12:32:02.064Z,3.30
2023-05-13T12:43:02.003Z,2.50
2023-05-13T12:43:56.930Z,2.80
2023-05-13T12:44:56.932Z,3.20
2023-05-13T12:56:01.801Z,3.10
2023-05-13T13:07:01.681Z,2.80
2023-05-13T13:18:01.692Z,2.60
2023-05-13T13:29:01.458Z,3.60
2023-05-13T13:40:01.335Z,3.30
2023-05-13T13:51:01.200Z,4.00
2023-05-13T14:02:01.140Z,3.40
2023-05-13T14:13:00.962Z,3.00
2023-05-13T14:24:00.860Z,3.10
2023-05-13T14:35:00.716Z,2.80
2023-05-13T14:46:00.635Z,3.40
2023-05-13T14:57:00.496Z,2.90
2023-05-13T15:08:00.342Z,2.50
2023-05-13T15:19:00.280Z,2.60
2023-05-13T15:30:00.128Z,2.40
2023-05-13T15:41:00.280Z,3.00
2023-05-13T15:51:59.880Z,3.70
2023-05-13T16:02:59.808Z,2.50
2023-05-13T16:13:59.602Z,2.70
2023-05-13T16:24:59.490Z,3.70
2023-05-13T16:35:59.396Z,3.30
2023-05-13T16:46:59.237Z,3.90
2023-05-13T16:57:59.114Z,3.20
2023-05-13T17:08:59.012Z,3.20
2023-05-13T17:19:58.939Z,2.80
2023-05-13T17:30:58.815Z,3.20
2023-05-13T17:41:58.642Z,2.90
2023-05-13T17:52:58.515Z,3.60
2023-05-13T18:03:58.377Z,4.10
2023-05-13T18:14:58.293Z,4.70
2023-05-13T18:25:58.155Z,5.00
2023-05-13T18:36:58.099Z,4.70
2023-05-13T18:47:58.030Z,4.30
2023-05-13T18:58:57.776Z,4.10
2023-05-13T19:09:57.644Z,4.70
2023-05-13T19:20:57.529Z,4.30
2023-05-13T19:31:57.433Z,4.80
2023-05-13T19:42:57.293Z,5.20
2023-05-13T19:53:57.148Z,4.40
2023-05-13T20:04:57.026Z,4.40
2023-05-13T20:15:56.907Z,4.30
2023-05-13T20:26:56.899Z,4.40
